This is the latest recevied weather packets stored in our database for station/object SQ9NFI-4. If no packets are shown the sender has not sent any weather packets the latest 10 day(s).
| Time | Temp. | Humidity | Pressure | Rain* | Wind** | Luminosity | Snow |
|---|---|---|---|---|---|---|---|
| 1778012077 | 13.33° C | 61% | 1008.5 hPa | 0 mm | - | 0 W/m² | - |
| 1778011777 | 13.33° C | 59% | 1008.5 hPa | 0 mm | - | 0 W/m² | - |
| 1778011477 | 13.33° C | 67% | 1008.5 hPa | 0 mm | - | 0 W/m² | - |
| 1778011177 | 13.33° C | 62% | 1008.5 hPa | 0 mm | - | 0 W/m² | - |
| 1778009377 | 14.44° C | 62% | 1008.1 hPa | 0 mm | - | 0 W/m² | - |
| 1778003677 | 22.78° C | 24% | 1007.8 hPa | 0 mm | - | 7 W/m² | - |
| 1778000377 | 26.11° C | 18% | 1007.8 hPa | 0 mm | - | 44 W/m² | - |
| 1778000077 | 26.11° C | 17% | 1007.8 hPa | 0 mm | - | 48 W/m² | - |
| 1777999777 | 26.67° C | 18% | 1007.8 hPa | 0 mm | - | 49 W/m² | - |
| 1777999477 | 26.67° C | 18% | 1007.8 hPa | 0 mm | - | 60 W/m² | - |
| 1777999177 | 26.67° C | 18% | 1007.8 hPa | 0 mm | - | 65 W/m² | - |
| 1777998877 | 26.67° C | 18% | 1007.8 hPa | 0 mm | - | 75 W/m² | - |
| 1777998577 | 26.67° C | 16% | 1007.8 hPa | 0 mm | - | 81 W/m² | - |
| 1777998277 | 27.22° C | 16% | 1007.8 hPa | 0 mm | - | 89 W/m² | - |
| 1777997977 | 27.22° C | 14% | 1007.8 hPa | 0 mm | - | 100 W/m² | - |
| 1777997677 | 27.78° C | 14% | 1007.8 hPa | 0 mm | - | 109 W/m² | - |
| 1777997377 | 27.78° C | 13% | 1007.8 hPa | 0 mm | - | 114 W/m² | - |
| 1777997077 | 27.78° C | 13% | 1007.8 hPa | 0 mm | - | 127 W/m² | - |
| 1777996777 | 27.78° C | 14% | 1007.8 hPa | 0 mm | - | 138 W/m² | - |
| 1777996477 | 27.78° C | 13% | 1007.8 hPa | 0 mm | - | 143 W/m² | - |
| 1777996177 | 27.78° C | 14% | 1007.8 hPa | 0 mm | - | 161 W/m² | - |
| 1777995877 | 27.78° C | 14% | 1007.8 hPa | 0 mm | - | 182 W/m² | - |
| 1777995577 | 28.33° C | 14% | 1007.8 hPa | 0 mm | - | 193 W/m² | - |
| 1777995277 | 28.33° C | 17% | 1007.8 hPa | 0 mm | - | 208 W/m² | - |
| 1777994977 | 28.33° C | 18% | 1007.8 hPa | 0 mm | - | 223 W/m² | - |
* Rain latest hour (hover to see other rain measurements)
** Current wind speed in m/s (hover to see current wind gust speed)